sensor_id;sensor_type;location;lat;lon;timestamp;pressure;altitude;pressure_sealevel;temperature;humidity
55456;BME280;63021;52.836;6.376;2024-02-26T00:00:07;100337.25;;;3.19;80.45
55456;BME280;63021;52.836;6.376;2024-02-26T00:02:36;100334.63;;;3.19;80.23
55456;BME280;63021;52.836;6.376;2024-02-26T00:05:05;100348.72;;;3.18;80.13
55456;BME280;63021;52.836;6.376;2024-02-26T00:07:31;63605.13;;;-148.25;100.00
55456;BME280;63021;52.836;6.376;2024-02-26T00:09:56;100337.69;;;3.13;nan
55456;BME280;63021;52.836;6.376;2024-02-26T00:12:21;100336.13;;;3.10;nan
55456;BME280;63021;52.836;6.376;2024-02-26T00:14:47;100325.72;;;3.09;nan
55456;BME280;63021;52.836;6.376;2024-02-26T00:17:14;100332.38;;;3.02;nan
55456;BME280;63021;52.836;6.376;2024-02-26T00:19:40;100337.41;;;3.05;nan
55456;BME280;63021;52.836;6.376;2024-02-26T00:22:06;100331.53;;;3.01;nan
55456;BME280;63021;52.836;6.376;2024-02-26T00:24:31;100336.78;;;3.01;nan
55456;BME280;63021;52.836;6.376;2024-02-26T00:26:56;100337.00;;;2.98;nan
55456;BME280;63021;52.836;6.376;2024-02-26T00:29:22;100325.53;;;2.99;nan
55456;BME280;63021;52.836;6.376;2024-02-26T00:31:47;100333.56;;;2.98;nan
55456;BME280;63021;52.836;6.376;2024-02-26T00:34:13;100335.44;;;2.95;nan
55456;BME280;63021;52.836;6.376;2024-02-26T00:36:38;100331.34;;;2.91;nan
55456;BME280;63021;52.836;6.376;2024-02-26T00:39:04;100330.97;;;2.85;nan
55456;BME280;63021;52.836;6.376;2024-02-26T00:41:29;100350.19;;;2.85;nan
55456;BME280;63021;52.836;6.376;2024-02-26T00:43:55;100334.19;;;2.88;nan
55456;BME280;63021;52.836;6.376;2024-02-26T00:46:20;100340.38;;;2.87;nan
55456;BME280;63021;52.836;6.376;2024-02-26T00:48:45;100344.72;;;2.88;nan
55456;BME280;63021;52.836;6.376;2024-02-26T00:51:11;100344.72;;;2.88;nan
55456;BME280;63021;52.836;6.376;2024-02-26T00:53:36;100360.47;;;2.88;nan
55456;BME280;63021;52.836;6.376;2024-02-26T00:56:01;100381.28;;;2.91;nan
55456;BME280;63021;52.836;6.376;2024-02-26T00:58:27;100355.00;;;2.91;nan
55456;BME280;63021;52.836;6.376;2024-02-26T01:00:53;100345.75;;;2.86;nan
55456;BME280;63021;52.836;6.376;2024-02-26T01:03:18;100353.34;;;2.90;nan
55456;BME280;63021;52.836;6.376;2024-02-26T01:05:44;100382.38;;;2.89;nan
55456;BME280;63021;52.836;6.376;2024-02-26T01:08:09;100363.63;;;2.93;nan
55456;BME280;63021;52.836;6.376;2024-02-26T01:10:35;100365.41;;;2.93;nan
55456;BME280;63021;52.836;6.376;2024-02-26T01:13:01;100361.94;;;2.92;nan
55456;BME280;63021;52.836;6.376;2024-02-26T01:15:27;100361.94;;;2.92;nan
55456;BME280;63021;52.836;6.376;2024-02-26T01:17:52;100369.84;;;2.92;nan
55456;BME280;63021;52.836;6.376;2024-02-26T01:20:18;100371.53;;;2.93;nan
55456;BME280;63021;52.836;6.376;2024-02-26T01:22:44;100365.53;;;2.91;nan
55456;BME280;63021;52.836;6.376;2024-02-26T01:25:09;100372.69;;;2.89;nan
55456;BME280;63021;52.836;6.376;2024-02-26T01:27:36;100350.19;;;2.85;nan
55456;BME280;63021;52.836;6.376;2024-02-26T01:30:04;100359.66;;;2.88;nan
55456;BME280;63021;52.836;6.376;2024-02-26T01:32:30;100378.38;;;2.83;nan
55456;BME280;63021;52.836;6.376;2024-02-26T01:34:56;100374.78;;;2.84;nan
55456;BME280;63021;52.836;6.376;2024-02-26T01:37:22;100376.25;;;2.88;nan
55456;BME280;63021;52.836;6.376;2024-02-26T01:39:47;100370.06;;;2.89;nan
55456;BME280;63021;52.836;6.376;2024-02-26T01:42:13;100363.22;;;2.87;nan
55456;BME280;63021;52.836;6.376;2024-02-26T01:44:38;100367.66;;;2.86;nan
55456;BME280;63021;52.836;6.376;2024-02-26T01:47:05;100366.78;;;2.86;nan
55456;BME280;63021;52.836;6.376;2024-02-26T01:49:33;100365.97;;;2.85;nan
55456;BME280;63021;52.836;6.376;2024-02-26T01:52:00;100367.66;;;2.86;nan
55456;BME280;63021;52.836;6.376;2024-02-26T01:54:27;100374.78;;;2.84;nan
55456;BME280;63021;52.836;6.376;2024-02-26T01:56:52;100372.06;;;2.86;nan
55456;BME280;63021;52.836;6.376;2024-02-26T01:59:18;100368.59;;;2.85;nan
55456;BME280;63021;52.836;6.376;2024-02-26T02:01:47;100364.06;;;2.87;nan
55456;BME280;63021;52.836;6.376;2024-02-26T02:04:14;100370.06;;;2.89;nan
55456;BME280;63021;52.836;6.376;2024-02-26T02:06:41;100369.13;;;2.90;nan
55456;BME280;63021;52.836;6.376;2024-02-26T02:09:08;100364.81;;;2.89;nan
55456;BME280;63021;52.836;6.376;2024-02-26T02:11:33;100379.63;;;2.90;nan
55456;BME280;63021;52.836;6.376;2024-02-26T02:13:59;100357.63;;;2.91;nan
55456;BME280;63021;52.836;6.376;2024-02-26T02:16:25;100368.78;;;2.95;nan
55456;BME280;63021;52.836;6.376;2024-02-26T02:18:53;100374.97;;;2.94;nan
55456;BME280;63021;52.836;6.376;2024-02-26T02:21:19;100371.41;;;2.95;nan
55456;BME280;63021;52.836;6.376;2024-02-26T02:23:44;100380.88;;;2.98;nan
55456;BME280;63021;52.836;6.376;2024-02-26T02:26:12;100395.78;;;2.97;nan
55456;BME280;63021;52.836;6.376;2024-02-26T02:28:39;100375.41;;;3.01;nan
55456;BME280;63021;52.836;6.376;2024-02-26T02:31:05;100376.34;;;3.00;nan
55456;BME280;63021;52.836;6.376;2024-02-26T02:33:31;100381.38;;;3.03;nan
55456;BME280;63021;52.836;6.376;2024-02-26T02:35:56;100374.66;;;2.99;nan
55456;BME280;63021;52.836;6.376;2024-02-26T02:38:23;100398.84;;;3.04;nan
55456;BME280;63021;52.836;6.376;2024-02-26T02:40:49;100408.53;;;3.03;nan
55456;BME280;63021;52.836;6.376;2024-02-26T02:43:14;100396.09;;;3.05;nan
55456;BME280;63021;52.836;6.376;2024-02-26T02:45:39;100408.19;;;3.08;nan
55456;BME280;63021;52.836;6.376;2024-02-26T02:48:05;100395.28;;;3.05;nan
55456;BME280;63021;52.836;6.376;2024-02-26T02:50:30;100432.59;;;3.10;nan
55456;BME280;63021;52.836;6.376;2024-02-26T02:52:56;100404.41;;;3.12;nan
55456;BME280;63021;52.836;6.376;2024-02-26T02:55:21;100429.63;;;3.15;nan
55456;BME280;63021;52.836;6.376;2024-02-26T02:57:46;100414.69;;;3.15;nan
55456;BME280;63021;52.836;6.376;2024-02-26T03:00:12;100423.31;;;3.17;nan
55456;BME280;63021;52.836;6.376;2024-02-26T03:02:37;100403.31;;;3.15;nan
55456;BME280;63021;52.836;6.376;2024-02-26T03:05:06;100426.06;;;3.16;nan
55456;BME280;63021;52.836;6.376;2024-02-26T03:07:32;100433.81;;;3.17;nan
55456;BME280;63021;52.836;6.376;2024-02-26T03:09:57;100416.28;;;3.18;nan
55456;BME280;63021;52.836;6.376;2024-02-26T03:12:23;100416.16;;;3.19;nan
55456;BME280;63021;52.836;6.376;2024-02-26T03:14:48;100419.72;;;3.18;nan
55456;BME280;63021;52.836;6.376;2024-02-26T03:17:14;100421.44;;;3.19;nan
55456;BME280;63021;52.836;6.376;2024-02-26T03:19:39;100436.34;;;3.19;nan
55456;BME280;63021;52.836;6.376;2024-02-26T03:22:04;100435.28;;;3.21;nan
55456;BME280;63021;52.836;6.376;2024-02-26T03:24:30;100442.25;;;3.22;nan
55456;BME280;63021;52.836;6.376;2024-02-26T03:26:55;100441.19;;;3.25;nan
55456;BME280;63021;52.836;6.376;2024-02-26T03:29:21;100432.56;;;3.23;nan
55456;BME280;63021;52.836;6.376;2024-02-26T03:31:46;100450.63;;;3.27;nan
55456;BME280;63021;52.836;6.376;2024-02-26T03:34:12;100445.28;;;3.29;nan
55456;BME280;63021;52.836;6.376;2024-02-26T03:36:39;100466.41;;;3.27;nan
55456;BME280;63021;52.836;6.376;2024-02-26T03:39:04;100436.75;;;3.25;nan
55456;BME280;63021;52.836;6.376;2024-02-26T03:41:33;100440.75;;;3.31;nan
55456;BME280;63021;52.836;6.376;2024-02-26T03:43:58;100442.44;;;3.32;nan
55456;BME280;63021;52.836;6.376;2024-02-26T03:46:24;100446.59;;;3.35;nan
55456;BME280;63021;52.836;6.376;2024-02-26T03:48:49;100455.13;;;3.38;nan
55456;BME280;63021;52.836;6.376;2024-02-26T03:51:15;100457.66;;;3.40;nan
55456;BME280;63021;52.836;6.376;2024-02-26T03:53:40;100468.19;;;3.40;nan
55456;BME280;63021;52.836;6.376;2024-02-26T03:56:06;100463.16;;;3.37;nan
55456;BME280;63021;52.836;6.376;2024-02-26T03:58:32;100475.25;;;3.39;nan
55456;BME280;63021;52.836;6.376;2024-02-26T04:00:59;100462.59;;;3.44;nan
55456;BME280;63021;52.836;6.376;2024-02-26T04:03:24;100465.97;;;3.46;nan
55456;BME280;63021;52.836;6.376;2024-02-26T04:05:50;100461.00;;;3.42;nan
55456;BME280;63021;52.836;6.376;2024-02-26T04:08:16;100483.22;;;3.51;nan
55456;BME280;63021;52.836;6.376;2024-02-26T04:10:41;100475.09;;;3.54;nan
55456;BME280;63021;52.836;6.376;2024-02-26T04:13:07;100477.72;;;3.54;nan
55456;BME280;63021;52.836;6.376;2024-02-26T04:15:33;100477.63;;;3.55;nan
55456;BME280;63021;52.836;6.376;2024-02-26T04:17:59;100499.38;;;3.57;nan
55456;BME280;63021;52.836;6.376;2024-02-26T04:20:24;100492.25;;;3.59;nan
55456;BME280;63021;52.836;6.376;2024-02-26T04:22:49;100483.38;;;3.60;nan
55456;BME280;63021;52.836;6.376;2024-02-26T04:25:15;100484.47;;;3.58;nan
55456;BME280;63021;52.836;6.376;2024-02-26T04:27:40;100489.50;;;3.61;nan
55456;BME280;63021;52.836;6.376;2024-02-26T04:30:07;100491.06;;;3.63;nan
55456;BME280;63021;52.836;6.376;2024-02-26T04:32:33;100506.94;;;3.62;nan
55456;BME280;63021;52.836;6.376;2024-02-26T04:34:59;100527.81;;;3.65;nan
55456;BME280;63021;52.836;6.376;2024-02-26T04:37:25;100527.59;;;3.68;nan
55456;BME280;63021;52.836;6.376;2024-02-26T04:39:57;100511.78;;;3.68;nan
55456;BME280;63021;52.836;6.376;2024-02-26T04:42:22;100510.00;;;3.69;nan
55456;BME280;63021;52.836;6.376;2024-02-26T04:44:48;100516.00;;;3.71;nan
55456;BME280;63021;52.836;6.376;2024-02-26T04:47:13;100514.09;;;3.73;nan
55456;BME280;63021;52.836;6.376;2024-02-26T04:49:39;100503.03;;;3.68;nan
55456;BME280;63021;52.836;6.376;2024-02-26T04:52:04;100515.03;;;3.72;nan
55456;BME280;63021;52.836;6.376;2024-02-26T04:54:30;100516.00;;;3.71;nan
55456;BME280;63021;52.836;6.376;2024-02-26T04:56:55;100528.63;;;3.66;nan
55456;BME280;63021;52.836;6.376;2024-02-26T04:59:20;100503.25;;;3.64;nan
55456;BME280;63021;52.836;6.376;2024-02-26T05:01:46;100520.75;;;3.66;nan
55456;BME280;63021;52.836;6.376;2024-02-26T05:04:12;100526.13;;;3.64;nan
55456;BME280;63021;52.836;6.376;2024-02-26T05:06:37;100530.75;;;3.60;nan
55456;BME280;63021;52.836;6.376;2024-02-26T05:09:03;100514.13;;;3.60;nan
55456;BME280;63021;52.836;6.376;2024-02-26T05:11:28;100519.38;;;3.60;nan
55456;BME280;63021;52.836;6.376;2024-02-26T05:13:54;100523.06;;;3.57;nan
55456;BME280;63021;52.836;6.376;2024-02-26T05:16:19;100529.50;;;3.53;nan
55456;BME280;63021;52.836;6.376;2024-02-26T05:18:47;100534.16;;;3.50;nan
55456;BME280;63021;52.836;6.376;2024-02-26T05:21:12;100555.44;;;3.46;nan
55456;BME280;63021;52.836;6.376;2024-02-26T05:23:37;100538.56;;;3.49;nan
55456;BME280;63021;52.836;6.376;2024-02-26T05:26:03;100542.16;;;3.48;nan
55456;BME280;63021;52.836;6.376;2024-02-26T05:28:28;100560.69;;;3.46;nan
55456;BME280;63021;52.836;6.376;2024-02-26T05:30:54;100560.91;;;3.43;nan
55456;BME280;63021;52.836;6.376;2024-02-26T05:33:19;100573.31;;;3.41;nan
55456;BME280;63021;52.836;6.376;2024-02-26T05:35:45;100564.50;;;3.42;nan
55456;BME280;63021;52.836;6.376;2024-02-26T05:38:10;100556.72;;;3.41;nan
55456;BME280;63021;52.836;6.376;2024-02-26T05:40:35;100569.75;;;3.42;nan
55456;BME280;63021;52.836;6.376;2024-02-26T05:43:01;100578.81;;;3.38;nan
55456;BME280;63021;52.836;6.376;2024-02-26T05:45:26;100571.53;;;3.42;nan
55456;BME280;63021;52.836;6.376;2024-02-26T05:47:51;100575.03;;;3.42;nan
55456;BME280;63021;52.836;6.376;2024-02-26T05:50:17;100577.66;;;3.42;nan
55456;BME280;63021;52.836;6.376;2024-02-26T05:52:42;100598.06;;;3.39;nan
55456;BME280;63021;52.836;6.376;2024-02-26T05:55:08;100598.16;;;3.37;nan
55456;BME280;63021;52.836;6.376;2024-02-26T05:57:34;100588.28;;;3.41;nan
55456;BME280;63021;52.836;6.376;2024-02-26T06:00:00;100590.91;;;3.41;nan
55456;BME280;63021;52.836;6.376;2024-02-26T06:02:29;100600.06;;;3.35;nan
55456;BME280;63021;52.836;6.376;2024-02-26T06:04:55;100604.28;;;3.38;nan
55456;BME280;63021;52.836;6.376;2024-02-26T06:07:20;100590.59;;;3.33;nan
55456;BME280;63021;52.836;6.376;2024-02-26T06:09:45;100602.59;;;3.37;nan
55456;BME280;63021;52.836;6.376;2024-02-26T06:12:11;100618.16;;;3.40;nan
55456;BME280;63021;52.836;6.376;2024-02-26T06:14:36;100623.66;;;3.37;nan
55456;BME280;63021;52.836;6.376;2024-02-26T06:17:01;100606.06;;;3.37;nan
55456;BME280;63021;52.836;6.376;2024-02-26T06:19:27;100613.97;;;3.37;nan
55456;BME280;63021;52.836;6.376;2024-02-26T06:21:52;100613.00;;;3.38;nan
55456;BME280;63021;52.836;6.376;2024-02-26T06:24:17;100618.38;;;3.37;nan
55456;BME280;63021;52.836;6.376;2024-02-26T06:26:43;100619.97;;;3.39;nan
55456;BME280;63021;52.836;6.376;2024-02-26T06:29:08;100618.38;;;3.37;nan
55456;BME280;63021;52.836;6.376;2024-02-26T06:31:34;100637.13;;;3.32;nan
55456;BME280;63021;52.836;6.376;2024-02-26T06:33:59;100620.06;;;3.38;nan
55456;BME280;63021;52.836;6.376;2024-02-26T06:36:24;100639.44;;;3.37;nan
55456;BME280;63021;52.836;6.376;2024-02-26T06:38:50;100633.25;;;3.38;nan
55456;BME280;63021;52.836;6.376;2024-02-26T06:41:17;100625.44;;;3.36;nan
55456;BME280;63021;52.836;6.376;2024-02-26T06:43:42;100633.34;;;3.36;nan
55456;BME280;63021;52.836;6.376;2024-02-26T06:46:07;100642.06;;;3.37;nan
55456;BME280;63021;52.836;6.376;2024-02-26T06:48:33;100638.59;;;3.36;nan
55456;BME280;63021;52.836;6.376;2024-02-26T06:50:58;100651.84;;;3.35;nan
55456;BME280;63021;52.836;6.376;2024-02-26T06:53:24;100648.16;;;3.37;nan
55456;BME280;63021;52.836;6.376;2024-02-26T06:55:49;100652.50;;;3.38;nan
55456;BME280;63021;52.836;6.376;2024-02-26T06:58:15;100647.53;;;3.34;nan
55456;BME280;63021;52.836;6.376;2024-02-26T07:00:41;100656.91;;;3.38;nan
55456;BME280;63021;52.836;6.376;2024-02-26T07:03:06;100656.06;;;3.37;nan
55456;BME280;63021;52.836;6.376;2024-02-26T07:05:32;100659.66;;;3.36;nan
55456;BME280;63021;52.836;6.376;2024-02-26T07:07:57;100663.94;;;3.37;nan
55456;BME280;63021;52.836;6.376;2024-02-26T07:10:22;100669.09;;;3.39;nan
55456;BME280;63021;52.836;6.376;2024-02-26T07:12:48;100669.00;;;3.40;nan
55456;BME280;63021;52.836;6.376;2024-02-26T07:15:13;100692.06;;;3.37;nan
55456;BME280;63021;52.836;6.376;2024-02-26T07:17:38;100669.44;;;3.34;nan
55456;BME280;63021;52.836;6.376;2024-02-26T07:20:08;100686.59;;;3.40;nan
55456;BME280;63021;52.836;6.376;2024-02-26T07:22:33;100694.16;;;3.44;nan
55456;BME280;63021;52.836;6.376;2024-02-26T07:24:59;100670.69;;;3.41;nan
55456;BME280;63021;52.836;6.376;2024-02-26T07:27:24;100682.59;;;3.47;nan
55456;BME280;63021;52.836;6.376;2024-02-26T07:29:53;100667.75;;;3.46;nan
55456;BME280;63021;52.836;6.376;2024-02-26T07:32:24;100679.03;;;3.48;nan
55456;BME280;63021;52.836;6.376;2024-02-26T07:34:55;100675.53;;;3.47;nan
55456;BME280;63021;52.836;6.376;2024-02-26T07:37:20;100675.34;;;3.51;nan
55456;BME280;63021;52.836;6.376;2024-02-26T07:39:46;100674.47;;;3.50;nan
55456;BME280;63021;52.836;6.376;2024-02-26T07:42:11;100672.78;;;3.49;nan
55456;BME280;63021;52.836;6.376;2024-02-26T07:44:36;100684.69;;;3.55;nan
55456;BME280;63021;52.836;6.376;2024-02-26T07:47:02;100677.75;;;3.54;nan
55456;BME280;63021;52.836;6.376;2024-02-26T07:49:28;100681.88;;;3.58;nan
55456;BME280;63021;52.836;6.376;2024-02-26T07:51:53;100692.50;;;3.56;nan
55456;BME280;63021;52.836;6.376;2024-02-26T07:54:19;100704.38;;;3.62;nan
55456;BME280;63021;52.836;6.376;2024-02-26T07:56:45;100722.72;;;3.63;nan
55456;BME280;63021;52.836;6.376;2024-02-26T07:59:10;100694.72;;;3.62;nan
55456;BME280;63021;52.836;6.376;2024-02-26T08:01:35;100714.72;;;3.65;nan
55456;BME280;63021;52.836;6.376;2024-02-26T08:04:04;100711.97;;;3.67;nan
55456;BME280;63021;52.836;6.376;2024-02-26T08:06:29;100707.66;;;3.66;nan
55456;BME280;63021;52.836;6.376;2024-02-26T08:08:55;100704.59;;;3.72;nan
55456;BME280;63021;52.836;6.376;2024-02-26T08:11:20;100695.97;;;3.70;nan
55456;BME280;63021;52.836;6.376;2024-02-26T08:13:46;100727.44;;;3.71;nan
55456;BME280;63021;52.836;6.376;2024-02-26T08:16:11;100734.69;;;3.68;nan
55456;BME280;63021;52.836;6.376;2024-02-26T08:18:37;100717.97;;;3.69;nan
55456;BME280;63021;52.836;6.376;2024-02-26T08:21:03;100734.09;;;3.77;nan
55456;BME280;63021;52.836;6.376;2024-02-26T08:23:28;100728.81;;;3.77;nan
55456;BME280;63021;52.836;6.376;2024-02-26T08:25:54;100732.06;;;3.80;nan
55456;BME280;63021;52.836;6.376;2024-02-26T08:28:19;100736.28;;;3.83;nan
55456;BME280;63021;52.836;6.376;2024-02-26T08:30:45;100723.22;;;3.81;nan
55456;BME280;63021;52.836;6.376;2024-02-26T08:33:10;100731.03;;;3.83;nan
55456;BME280;63021;52.836;6.376;2024-02-26T08:35:36;100737.75;;;3.87;nan
55456;BME280;63021;52.836;6.376;2024-02-26T08:38:02;100748.19;;;3.89;nan
55456;BME280;63021;52.836;6.376;2024-02-26T08:40:28;100748.72;;;3.81;nan
55456;BME280;63021;52.836;6.376;2024-02-26T08:42:53;100767.47;;;3.89;nan
55456;BME280;63021;52.836;6.376;2024-02-26T08:45:19;100754.28;;;3.89;nan
55456;BME280;63021;52.836;6.376;2024-02-26T08:47:45;100758.72;;;3.89;nan
55456;BME280;63021;52.836;6.376;2024-02-26T08:50:10;100751.66;;;3.89;nan
55456;BME280;63021;52.836;6.376;2024-02-26T08:52:37;100761.78;;;3.95;nan
55456;BME280;63021;52.836;6.376;2024-02-26T08:55:03;100759.38;;;3.92;nan
55456;BME280;63021;52.836;6.376;2024-02-26T08:57:28;100772.09;;;3.98;nan
55456;BME280;63021;52.836;6.376;2024-02-26T08:59:54;100772.81;;;4.01;nan
55456;BME280;63021;52.836;6.376;2024-02-26T09:02:19;100772.81;;;4.01;nan
55456;BME280;63021;52.836;6.376;2024-02-26T09:04:45;100775.47;;;4.01;nan
55456;BME280;63021;52.836;6.376;2024-02-26T09:07:10;100775.47;;;4.01;nan
55456;BME280;63021;52.836;6.376;2024-02-26T09:09:39;100775.78;;;3.96;nan
55456;BME280;63021;52.836;6.376;2024-02-26T09:12:10;100775.47;;;4.01;nan
55456;BME280;63021;52.836;6.376;2024-02-26T09:14:36;100757.78;;;3.90;nan
55456;BME280;63021;52.836;6.376;2024-02-26T09:17:01;100794.13;;;4.10;nan
55456;BME280;63021;52.836;6.376;2024-02-26T09:19:27;100787.91;;;4.11;nan
55456;BME280;63021;52.836;6.376;2024-02-26T09:21:55;100796.53;;;4.13;nan
55456;BME280;63021;52.836;6.376;2024-02-26T09:24:23;100803.50;;;4.14;nan
55456;BME280;63021;52.836;6.376;2024-02-26T09:26:48;100796.31;;;4.16;nan
55456;BME280;63021;52.836;6.376;2024-02-26T09:29:14;100825.00;;;4.21;nan
55456;BME280;63021;52.836;6.376;2024-02-26T09:31:39;100803.28;;;4.18;nan
55456;BME280;63021;52.836;6.376;2024-02-26T09:34:06;100825.63;;;4.25;nan
55456;BME280;63021;52.836;6.376;2024-02-26T09:36:33;100821.72;;;4.30;nan
55456;BME280;63021;52.836;6.376;2024-02-26T09:38:58;100844.59;;;4.30;nan
55456;BME280;63021;52.836;6.376;2024-02-26T09:41:27;100824.34;;;4.30;nan
55456;BME280;63021;52.836;6.376;2024-02-26T09:43:56;100813.81;;;4.30;nan
55456;BME280;63021;52.836;6.376;2024-02-26T09:46:21;100808.09;;;4.37;nan
55456;BME280;63021;52.836;6.376;2024-02-26T09:48:47;100817.59;;;4.39;nan
55456;BME280;63021;52.836;6.376;2024-02-26T09:51:14;100820.00;;;4.42;nan
55456;BME280;63021;52.836;6.376;2024-02-26T09:53:43;100826.03;;;4.44;nan
55456;BME280;63021;52.836;6.376;2024-02-26T09:56:11;100822.44;;;4.45;nan
55456;BME280;63021;52.836;6.376;2024-02-26T09:58:38;100826.03;;;4.44;nan
55456;BME280;63021;52.836;6.376;2024-02-26T10:01:11;100835.31;;;4.50;nan
55456;BME280;63021;52.836;6.376;2024-02-26T10:03:38;100836.97;;;4.51;nan
55456;BME280;63021;52.836;6.376;2024-02-26T10:06:09;100844.16;;;4.49;nan
55456;BME280;63021;52.836;6.376;2024-02-26T10:08:35;100845.53;;;4.55;nan
55456;BME280;63021;52.836;6.376;2024-02-26T10:11:05;100831.09;;;4.47;nan
55456;BME280;63021;52.836;6.376;2024-02-26T10:13:32;100858.91;;;4.64;nan
55456;BME280;63021;52.836;6.376;2024-02-26T10:15:57;100848.56;;;4.61;nan
55456;BME280;63021;52.836;6.376;2024-02-26T10:18:24;100848.03;;;4.69;nan
55456;BME280;63021;52.836;6.376;2024-02-26T10:21:03;100865.44;;;4.72;nan
55456;BME280;63021;52.836;6.376;2024-02-26T10:23:28;100861.75;;;4.74;nan
55456;BME280;63021;52.836;6.376;2024-02-26T10:25:54;100881.03;;;4.75;nan
55456;BME280;63021;52.836;6.376;2024-02-26T10:28:20;100879.97;;;4.77;nan
55456;BME280;63021;52.836;6.376;2024-02-26T10:30:46;100860.34;;;4.81;nan
55456;BME280;63021;52.836;6.376;2024-02-26T10:33:12;100867.41;;;4.81;nan
55456;BME280;63021;52.836;6.376;2024-02-26T10:35:38;100879.19;;;4.88;nan
55456;BME280;63021;52.836;6.376;2024-02-26T10:38:06;100888.81;;;4.89;nan
55456;BME280;63021;52.836;6.376;2024-02-26T10:40:32;100906.44;;;4.89;nan
55456;BME280;63021;52.836;6.376;2024-02-26T10:45:49;100893.56;;;4.84;nan
55456;BME280;63021;52.836;6.376;2024-02-26T10:48:15;100888.81;;;4.89;nan
55456;BME280;63021;52.836;6.376;2024-02-26T10:50:49;100912.41;;;5.03;nan
55456;BME280;63021;52.836;6.376;2024-02-26T10:53:17;100899.09;;;5.05;nan
55456;BME280;63021;52.836;6.376;2024-02-26T10:55:49;100931.59;;;5.06;nan
55456;BME280;63021;52.836;6.376;2024-02-26T10:58:16;100930.84;;;5.16;nan
55456;BME280;63021;52.836;6.376;2024-02-26T11:00:42;100926.69;;;5.25;nan
55456;BME280;63021;52.836;6.376;2024-02-26T11:03:08;100921.19;;;5.28;nan
55456;BME280;63021;52.836;6.376;2024-02-26T11:05:35;100953.63;;;5.30;nan
55456;BME280;63021;52.836;6.376;2024-02-26T11:08:02;100926.13;;;5.33;nan
55456;BME280;63021;52.836;6.376;2024-02-26T11:10:29;100927.72;;;5.35;nan
55456;BME280;63021;52.836;6.376;2024-02-26T11:12:55;100930.88;;;5.41;nan
55456;BME280;63021;52.836;6.376;2024-02-26T11:15:23;100927.91;;;5.45;nan
55456;BME280;63021;52.836;6.376;2024-02-26T11:17:50;100928.84;;;5.44;nan
55456;BME280;63021;52.836;6.376;2024-02-26T11:20:17;100917.63;;;5.53;nan
55456;BME280;63021;52.836;6.376;2024-02-26T11:22:44;100927.22;;;5.54;nan
55456;BME280;63021;52.836;6.376;2024-02-26T11:25:10;100933.13;;;5.58;nan
55456;BME280;63021;52.836;6.376;2024-02-26T11:27:45;100948.88;;;5.60;nan
55456;BME280;63021;52.836;6.376;2024-02-26T11:30:13;100954.25;;;5.58;nan
55456;BME280;63021;52.836;6.376;2024-02-26T11:32:38;100926.63;;;5.51;nan
55456;BME280;63021;52.836;6.376;2024-02-26T11:35:07;100935.66;;;5.60;nan
55456;BME280;63021;52.836;6.376;2024-02-26T11:37:35;100947.69;;;5.64;nan
55456;BME280;63021;52.836;6.376;2024-02-26T11:40:01;100930.78;;;5.66;nan
55456;BME280;63021;52.836;6.376;2024-02-26T11:42:27;100943.88;;;5.68;nan
55456;BME280;63021;52.836;6.376;2024-02-26T11:44:55;100935.84;;;5.69;nan
55456;BME280;63021;52.836;6.376;2024-02-26T11:47:27;100947.22;;;5.70;nan
55456;BME280;63021;52.836;6.376;2024-02-26T11:49:52;100945.75;;;5.66;nan
55456;BME280;63021;52.836;6.376;2024-02-26T11:52:17;100952.41;;;5.71;nan
55456;BME280;63021;52.836;6.376;2024-02-26T11:54:47;100939.31;;;5.70;nan
55456;BME280;63021;52.836;6.376;2024-02-26T11:59:47;100953.75;;;5.77;nan
55456;BME280;63021;52.836;6.376;2024-02-26T12:02:50;100950.38;;;5.75;nan
55456;BME280;63021;52.836;6.376;2024-02-26T12:05:23;100953.03;;;5.75;nan
55456;BME280;63021;52.836;6.376;2024-02-26T12:10:31;100955.31;;;5.80;nan
55456;BME280;63021;52.836;6.376;2024-02-26T12:13:16;100950.66;;;5.83;nan
55456;BME280;63021;52.836;6.376;2024-02-26T12:18:18;100957.72;;;5.83;nan
55456;BME280;63021;52.836;6.376;2024-02-26T12:20:44;100962.31;;;5.81;nan
55456;BME280;63021;52.836;6.376;2024-02-26T12:23:15;100959.03;;;5.77;nan
55456;BME280;63021;52.836;6.376;2024-02-26T12:25:43;100971.28;;;5.78;nan
55456;BME280;63021;52.836;6.376;2024-02-26T12:28:09;100998.53;;;5.79;nan
55456;BME280;63021;52.836;6.376;2024-02-26T12:30:34;100994.34;;;5.76;nan
55456;BME280;63021;52.836;6.376;2024-02-26T12:33:00;100994.94;;;5.80;nan
55456;BME280;63021;52.836;6.376;2024-02-26T12:35:27;100988.25;;;5.87;nan
55456;BME280;63021;52.836;6.376;2024-02-26T12:37:53;100995.84;;;5.92;nan
55456;BME280;63021;52.836;6.376;2024-02-26T12:40:20;100987.69;;;5.95;nan
55456;BME280;63021;52.836;6.376;2024-02-26T12:42:46;100989.00;;;5.89;nan
55456;BME280;63021;52.836;6.376;2024-02-26T12:45:12;100981.41;;;5.84;nan
55456;BME280;63021;52.836;6.376;2024-02-26T12:47:45;100984.16;;;5.83;nan
55456;BME280;63021;52.836;6.376;2024-02-26T12:50:12;100997.88;;;5.88;nan
55456;BME280;63021;52.836;6.376;2024-02-26T12:52:45;101014.34;;;5.92;nan
55456;BME280;63021;52.836;6.376;2024-02-26T12:55:14;101006.28;;;5.93;nan
55456;BME280;63021;52.836;6.376;2024-02-26T12:57:41;101017.72;;;5.94;nan
55456;BME280;63021;52.836;6.376;2024-02-26T13:00:12;101010.03;;;5.90;nan
55456;BME280;63021;52.836;6.376;2024-02-26T13:02:38;101034.66;;;5.91;nan
55456;BME280;63021;52.836;6.376;2024-02-26T13:05:05;101008.81;;;5.95;nan
55456;BME280;63021;52.836;6.376;2024-02-26T13:07:33;101019.50;;;5.93;nan
55456;BME280;63021;52.836;6.376;2024-02-26T13:09:58;101023.34;;;5.89;nan
55456;BME280;63021;52.836;6.376;2024-02-26T13:12:24;101020.59;;;5.90;nan
55456;BME280;63021;52.836;6.376;2024-02-26T13:15:00;101039.28;;;5.87;nan
55456;BME280;63021;52.836;6.376;2024-02-26T13:17:26;101036.34;;;5.92;nan
55456;BME280;63021;52.836;6.376;2024-02-26T13:19:53;101059.38;;;5.90;nan
55456;BME280;63021;52.836;6.376;2024-02-26T13:22:21;101041.63;;;5.92;nan
55456;BME280;63021;52.836;6.376;2024-02-26T13:24:54;101046.03;;;5.92;nan
55456;BME280;63021;52.836;6.376;2024-02-26T13:27:23;101033.69;;;5.92;nan